Au Sable Forks, NY

7:32 PM EST on November 24, 2014 (GMT -0500)
AuSable River | Change Station
CLOSE
Current Station
Personal Weather Station
Location: Wilmington, NY
Elevation: 1014 ft
Nearby Weather Stations

Elev 1014 ft 44.40 °N, 73.80 °W | Updated 6 minutes ago

Partly Cloudy
Partly Cloudy
55.0 °F
Feels Like 55.0 °F
N
0.0
Wind Variable Wind from SSE

Today
High -- | Low -- °F
--% Chance of Precip.
Yesterday
High -- | Low -- °F
Precip. -- in
7:02 AM 4:20 PM
Waxing Crescent, 8% visible
Pressure 29.36 in
Visibility 10.0 miles
Clouds Scattered Clouds 11000 ft
Dew Point 52 °F
Humidity 90%
Rainfall 0.30 in
Snow Depth Not available.
UV 0 out of 12
Pollen .10 out of 12
Air Quality Not available.
Flu Activity Not available.
METAR KPBG 242353Z AUTO 18009KT 10SM SCT110 15/12 A2935 RMK AO2 RAE28 SLP941 P0011 60012 T01500122 10194 20150 50008

More Conditions Fewer Conditions

Pressure 29.36 in
Visibility 10.0 miles
Clouds Scattered Clouds 11000 ft
Dew Point 52 °F
Humidity 90%
Rainfall 0.30 in
Snow Depth Not available.
UV 0 out of 12
Pollen .10 out of 12
Air Quality Not available.
Flu Activity Not available.
METAR KPBG 242353Z AUTO 18009KT 10SM SCT110 15/12 A2935 RMK AO2 RAE28 SLP941 P0011 60012 T01500122 10194 20150 50008

More Conditions Fewer Conditions

10-Day Weather Forecast

Almanac

Astronomy

Nov. 24, 2014 Rise Set
Actual Time
Civil Twilight
Nautical Twilight
Astronomical Twilight
Moon
Length of Visible Light
Length of Day
Tomorrow will be .
, % of the Moon is Illuminated

Today's Extremes

State Highs State Lows

Community

WunderPhotos

Upload Photos

1,773,442 photos uploaded!

WunderBlogs® & News

Nearby

Air Quality

  Air Quality AQ Index Pollutant
Not available.

Snow Depth

Station Depth Elevation

Earthquake Activity

City Distance Mag. Time & Date
Minimum magnitude displayed is 2.5.

Coastal Water Temperatures

Place Temperature

Nearby Weather Stations